PANC/ANC METAR and TAF weather

Enter ICAO airport designator
Station Type Date Time Source
PANC METAR 2019/12/06 23:53 UTC NOAA

PANC 062353Z 35007KT 10SM FEW007 OVC080 M06/M11 A2969 RMK AO2 SLP057 4/006 60000 T10611106 11061 21078 58012


Station Type Date Time Source
PANC Decoded METAR 2019/12/06 23:53 UTC NOAA

TED STEVENS ANCHORAGE INTERNATIONAL , AK, United States (PANC) 61-10N 150-02W 48M
Dec 06, 2019 - 06:53 PM EST / 2019.12.06 2353 UTC
Wind: from the N (350 degrees) at 8 MPH (7 KT):0
Visibility: 10 mile(s):0
Sky conditions: overcast
Weather: 6 inches of snow on ground
Temperature: 21.0 F (-6.1 C)
Windchill: 12 F (-11 C):1
Dew Point: 12.9 F (-10.6 C)
Relative Humidity: 70%
Pressure (altimeter): 29.69 in. Hg (1005 hPa)
Pressure tendency: 0.04 inches (1.2 hPa) lower than three hours ago
ob: PANC 062353Z 35007KT 10SM FEW007 OVC080 M06/M11 A2969 RMK AO2 SLP057 4/006 60000 T10611106 11061 21078 58012
cycle: 0

Station Type Date Time Source
PANC TAF 2019/12/06 18:42 UTC NOAA

TAF PANC 061741Z 0618/0724 01006KT P6SM SCT045 BKN070 OVC090
TEMPO 0618/0620 5SM -SHSN BKN045
FM071800 36010KT P6SM VCSH SCT050 BKN080 WS020/13030KT

Example: see airport list